La Crosse Municipal Airport
KLSE : now visible

Aeroporto :











RITROVATECI SU...

 
LOGIN :

Iscrizione | Disclaimer

   EN    FR    IT 

 









Sommario :    VFR   VFR Marginale   IFR   IFR Intensivo   IFR Molto Intensivo
Visibilità : 
Base nubi : 
>= 8 km
>= 3000ft
5 / 8 km
1000 / 3000 ft
1500m / 5 km
500 / 1000 ft
800 / 1500m
200 / 500 ft
< 800m
< 200 ft
Simboli :   Temporali  Nebbia  Neve Forte  Precipitazioni Forti  Vento > 20 kt






- Altitudine del aeroporto : 655 ft
- Codice IATA : LSE


KLSE - La Crosse Municipal

ULTIMO METAR :
  • 072053Z 18015KT 10SM CLR 04/M03 A3007 RMK AO2 SLP193 T00391033 56033

METARs OBSOLETI :
  • 071953Z 18012G21KT 10SM CLR 04/M03 A3009 RMK AO2 SLP200 T00391033
  • 071853Z 18012KT 10SM CLR 03/M04 A3013 RMK AO2 SLP215 T00331039

TAF KLSE
Valido dal 07 a 18 ore il 08 a 18 ore UTC


071735Z 0718/0818 18012KT P6SM SCT200
FM072200 18012G18KT P6SM SCT200 WS020/21040KT
FM080200 18014G21KT P6SM BKN250 WS015/21050KT
FM081000 20010KT P6SM BKN250



MetMap, La meteo Aeronautica in un colpo d'occhio ! - Copyright ORBIFLY Dicembre 2007 - Disclaimer

ORBIFLY MET'MAP TEAM :

Programmazione e sviluppo : Alexandra Zaïnal
Concezione : Baudouin d'Aumeries
Aiuto per la programmazione : Marc-Olivier Méhu
Supporto tecnico e logistico : Manuel Goepfert
Aiuto per la traduzione : Arnaldo La Scala

Contatto : metmap@orbifly.com




FONTI E CREDITI :

   NOAA       Earth
Advisory